Lihue

Airport
ICAO code: 
PHLI
Summary
ICAO Region: 
NAM
Territory: 
Location: 
Lihue,
Coordinates: 
Aerial View: 
21° 58' 33.599" N, 159° 20' 20.416" W
Metar
Observation
PHLI 271853Z 02010KT 10SM BKN032 OVC043 23/18 A3007 RMK AO2 SLP179 T02280183
Station
Lihue, Lihue Airport
Date/Time
2022-05-27 18:53:00
Wind direction
20°
Wind speed
10 kts
Lowest cloud amount
broken clouds
Temperature
22.8°C
Dew point
18.3°C
Humidity
75%
Weather condition
n/a

Description

Lihue Airport is a state-owned public-use airport located in the Līhuʻe on the southeast coast of the island of Kauaʻi in Kauai County, Hawaiʻi, United States, 2 nm east of the center of Līhuʻe.

Climatology

Tropical Monsoon climate (Köppen climate classification Am) - monthly mean temperatures above 18°C in every month of the year and features wet and dry seasons. A tropical monsoon climate typically features less pronounced dry seasons than a tropical savanna climate and see less variance in temperatures during the course of the year.

Runways

Designator Length Width Surface Rops
3/21 1981 46 ASP Yes/Yes
17/35 1981 46 ASP Yes/Yes
Airport map: 
Aerial View: 

Accidents and Serious Incidents at or in the vicinity of PHLI

SKYbrary Partners:

Safety knowledge contributed by: